createdAt,value
2019-05-03T03:00:58.943Z,35.77
2019-05-03T03:03:27.848Z,38.17
2019-05-03T03:05:57.478Z,36.30
2019-05-03T03:08:28.210Z,35.47
2019-05-03T03:10:59.682Z,35.67
2019-05-03T03:13:29.470Z,36.63
2019-05-03T03:15:59.258Z,37.07
2019-05-03T03:18:28.126Z,37.73
2019-05-03T03:20:56.698Z,35.93
2019-05-03T03:23:26.876Z,36.83
2019-05-03T03:25:56.037Z,37.73
2019-05-03T03:28:25.430Z,36.93
2019-05-03T03:31:31.304Z,38.37
2019-05-03T03:34:07.790Z,37.33
2019-05-03T03:36:54.460Z,40.80
2019-05-03T03:39:08.079Z,41.23
2019-05-03T03:41:36.648Z,40.37
2019-05-03T03:44:05.831Z,42.77
2019-05-03T03:46:35.853Z,40.37
2019-05-03T03:49:07.079Z,40.10
2019-05-03T03:51:35.194Z,39.10
2019-05-03T03:54:06.078Z,38.87
2019-05-03T03:56:40.908Z,40.43
2019-05-03T03:59:05.893Z,41.63
2019-05-03T04:01:35.081Z,40.90
2019-05-03T04:04:05.526Z,40.17
2019-05-03T04:06:40.630Z,40.00
2019-05-03T04:09:09.568Z,39.27
2019-05-03T04:11:38.253Z,41.90
2019-05-03T04:14:09.819Z,40.93
2019-05-03T04:16:57.471Z,40.03
2019-05-03T04:19:29.975Z,39.73
2019-05-03T04:21:58.839Z,39.90
2019-05-03T04:24:27.611Z,41.47
2019-05-03T04:27:15.489Z,38.97
2019-05-03T04:29:36.031Z,40.60
2019-05-03T04:32:06.061Z,42.00
2019-05-03T04:34:35.900Z,40.80
2019-05-03T04:37:05.421Z,41.93
2019-05-03T04:39:35.993Z,40.80
2019-05-03T04:42:06.797Z,39.57
2019-05-03T04:44:35.949Z,40.97
2019-05-03T04:47:06.819Z,40.57
2019-05-03T04:49:36.271Z,39.63
2019-05-03T04:52:05.757Z,40.07
2019-05-03T04:54:58.117Z,40.17
2019-05-03T04:57:40.003Z,40.93
2019-05-03T04:59:57.156Z,37.47
2019-05-03T05:02:26.599Z,35.57
2019-05-03T05:04:55.697Z,35.57
2019-05-03T05:07:26.192Z,36.23
2019-05-03T05:09:56.136Z,35.07
2019-05-03T05:12:25.454Z,36.40
2019-05-03T05:14:56.416Z,37.20
2019-05-03T05:17:38.683Z,35.97
2019-05-03T05:20:25.403Z,35.83
2019-05-03T05:22:54.399Z,34.57
2019-05-03T05:25:25.207Z,37.03
2019-05-03T05:28:05.875Z,34.30
2019-05-03T05:30:35.296Z,33.53
2019-05-03T05:33:05.406Z,35.80
2019-05-03T05:35:35.206Z,33.93
2019-05-03T05:38:04.691Z,34.00
2019-05-03T05:40:34.904Z,35.50
2019-05-03T05:43:04.887Z,34.43
2019-05-03T05:45:34.858Z,35.83
2019-05-03T05:48:07.270Z,33.40
2019-05-03T05:50:41.727Z,33.77
2019-05-03T05:53:10.311Z,32.63
2019-05-03T05:55:56.594Z,33.37
2019-05-03T05:58:32.270Z,31.17
2019-05-03T06:01:08.798Z,30.97
2019-05-03T06:03:37.410Z,31.47
2019-05-03T06:06:07.870Z,30.77
2019-05-03T06:09:01.802Z,30.80
2019-05-03T06:11:55.277Z,31.20
2019-05-03T06:14:27.963Z,30.57
2019-05-03T06:17:08.587Z,32.30
2019-05-03T06:19:56.271Z,32.60
2019-05-03T06:22:31.915Z,31.03
2019-05-03T06:25:06.405Z,31.20
2019-05-03T06:27:37.664Z,32.40
2019-05-03T06:30:15.119Z,31.87
2019-05-03T06:32:44.848Z,31.40
2019-05-03T06:35:15.173Z,31.03
2019-05-03T06:37:45.852Z,32.07
2019-05-03T06:40:15.013Z,30.90
2019-05-03T06:42:52.361Z,29.77
2019-05-03T06:45:15.089Z,30.63
2019-05-03T06:47:46.070Z,30.67
2019-05-03T06:50:14.516Z,30.23
2019-05-03T06:52:44.556Z,31.03
2019-05-03T06:55:14.509Z,30.70
2019-05-03T06:57:49.378Z,30.83
2019-05-03T07:00:35.065Z,31.23
2019-05-03T07:03:16.955Z,32.53
2019-05-03T07:06:04.548Z,32.13
2019-05-03T07:09:01.267Z,31.73
2019-05-03T07:11:29.851Z,32.87
2019-05-03T07:13:58.418Z,32.80
2019-05-03T07:16:27.035Z,32.37
2019-05-03T07:18:58.131Z,30.73
2019-05-03T07:21:25.927Z,32.80
2019-05-03T07:23:55.136Z,30.67
2019-05-03T07:26:25.410Z,30.33
2019-05-03T07:28:54.624Z,29.93
2019-05-03T07:31:25.352Z,31.43
2019-05-03T07:33:55.046Z,31.27
2019-05-03T07:36:28.099Z,32.60
2019-05-03T07:38:55.564Z,31.33
2019-05-03T07:41:27.042Z,31.23
2019-05-03T07:43:55.009Z,30.20
2019-05-03T07:46:24.730Z,33.27
2019-05-03T07:48:54.794Z,30.23
2019-05-03T07:51:24.838Z,30.83
2019-05-03T07:53:55.589Z,29.53
2019-05-03T07:56:27.335Z,27.70
2019-05-03T07:59:02.663Z,25.30
2019-05-03T08:01:32.023Z,25.30
2019-05-03T08:04:00.599Z,22.90
2019-05-03T08:06:29.206Z,22.73
2019-05-03T08:08:57.782Z,22.80
2019-05-03T08:11:26.389Z,22.43
2019-05-03T08:13:55.530Z,21.47
2019-05-03T08:16:25.146Z,19.77
2019-05-03T08:18:55.807Z,20.83
2019-05-03T08:21:25.238Z,23.27
2019-05-03T08:23:55.718Z,21.63
2019-05-03T08:26:25.667Z,20.47
2019-05-03T08:28:54.811Z,21.20
2019-05-03T08:31:35.363Z,21.30
2019-05-03T08:34:29.334Z,20.97
2019-05-03T08:37:18.947Z,20.30
2019-05-03T08:39:47.522Z,19.83
2019-05-03T08:42:22.150Z,18.67
2019-05-03T08:44:50.721Z,18.47
2019-05-03T08:47:19.298Z,19.57
2019-05-03T08:49:48.503Z,19.97
2019-05-03T08:52:17.082Z,19.93
2019-05-03T08:54:45.663Z,18.57
2019-05-03T08:57:14.967Z,18.10
2019-05-03T08:59:44.616Z,19.87
2019-05-03T09:02:14.301Z,18.67
2019-05-03T09:04:45.986Z,17.80
2019-05-03T09:07:14.850Z,17.93
2019-05-03T09:10:00.823Z,18.37
2019-05-03T09:12:48.787Z,18.97
2019-05-03T09:15:17.382Z,19.80
2019-05-03T09:17:45.957Z,19.17
2019-05-03T09:20:15.541Z,18.57
2019-05-03T09:22:45.297Z,18.30
2019-05-03T09:25:15.464Z,18.20
2019-05-03T09:27:44.697Z,18.17
2019-05-03T09:30:14.492Z,17.93
2019-05-03T09:32:44.811Z,18.57
2019-05-03T09:35:26.803Z,18.00
2019-05-03T09:37:44.959Z,19.00
2019-05-03T09:40:15.156Z,17.57
2019-05-03T09:42:44.491Z,18.40
2019-05-03T09:45:15.246Z,16.60
2019-05-03T09:47:44.849Z,17.90
2019-05-03T09:50:15.576Z,16.00
2019-05-03T09:52:46.832Z,15.60
2019-05-03T09:55:19.926Z,14.63
2019-05-03T09:57:48.535Z,15.23
2019-05-03T10:00:18.293Z,14.07
2019-05-03T10:02:46.850Z,12.27
2019-05-03T10:05:15.820Z,11.60
2019-05-03T10:07:45.569Z,12.77
2019-05-03T10:10:15.386Z,12.50
2019-05-03T10:12:44.163Z,13.10
2019-05-03T10:15:15.230Z,13.73
2019-05-03T10:17:51.236Z,14.93
2019-05-03T10:20:21.235Z,15.13
2019-05-03T10:22:49.897Z,16.17
2019-05-03T10:25:18.543Z,16.30
2019-05-03T10:27:47.131Z,16.80
2019-05-03T10:30:19.466Z,16.17
2019-05-03T10:32:52.634Z,16.60
2019-05-03T10:35:21.230Z,16.77
2019-05-03T10:37:50.156Z,15.93
2019-05-03T10:40:25.427Z,15.53
2019-05-03T10:42:55.264Z,16.13
2019-05-03T10:45:27.845Z,16.70
2019-05-03T10:47:54.643Z,16.60
2019-05-03T10:50:25.211Z,16.47
2019-05-03T10:52:59.975Z,16.03
2019-05-03T10:55:28.530Z,16.73
2019-05-03T10:58:11.191Z,15.33
2019-05-03T11:00:46.290Z,14.63
2019-05-03T11:03:11.727Z,15.47
2019-05-03T11:05:40.315Z,14.30
2019-05-03T11:08:08.878Z,15.17
2019-05-03T11:10:37.514Z,14.20
2019-05-03T11:13:06.088Z,12.73
2019-05-03T11:15:35.104Z,12.83
2019-05-03T11:18:05.614Z,13.13
2019-05-03T11:20:34.793Z,12.63
2019-05-03T11:23:05.990Z,12.67
2019-05-03T11:25:34.874Z,13.10
2019-05-03T11:28:08.227Z,12.40
2019-05-03T11:30:36.790Z,11.00
2019-05-03T11:33:19.038Z,11.33
2019-05-03T11:36:06.302Z,10.40
2019-05-03T11:38:45.347Z,11.17
2019-05-03T11:41:16.466Z,10.50
2019-05-03T11:43:44.369Z,8.40
2019-05-03T11:46:13.115Z,7.23
2019-05-03T11:48:41.810Z,7.37
2019-05-03T11:51:10.693Z,8.00
2019-05-03T11:53:39.250Z,8.17
2019-05-03T11:56:07.846Z,8.07
2019-05-03T11:58:36.437Z,8.33
2019-05-03T12:01:18.871Z,6.73
2019-05-03T12:03:48.538Z,6.40
2019-05-03T12:06:17.106Z,6.70
2019-05-03T12:08:46.042Z,6.37
2019-05-03T12:11:15.122Z,6.63
2019-05-03T12:13:45.624Z,5.43
2019-05-03T12:16:20.320Z,5.70
2019-05-03T12:18:52.077Z,5.77
2019-05-03T12:21:17.804Z,5.33
2019-05-03T12:23:46.257Z,5.50
2019-05-03T12:26:17.353Z,5.97
2019-05-03T12:28:45.531Z,6.07
2019-05-03T12:31:29.422Z,6.33
2019-05-03T12:33:45.967Z,5.10
2019-05-03T12:36:15.460Z,5.33
2019-05-03T12:38:45.022Z,5.50
2019-05-03T12:41:15.037Z,5.90
2019-05-03T12:43:44.035Z,5.57
2019-05-03T12:46:12.654Z,4.80
2019-05-03T12:48:41.615Z,4.37
2019-05-03T12:51:10.532Z,3.80
2019-05-03T12:53:39.408Z,4.73
2019-05-03T12:56:12.684Z,3.40
2019-05-03T12:58:48.278Z,3.70
2019-05-03T13:01:41.761Z,3.53
2019-05-03T13:04:15.160Z,3.63
2019-05-03T13:06:46.828Z,4.00
2019-05-03T13:09:16.021Z,3.27
2019-05-03T13:11:55.353Z,2.40
2019-05-03T13:14:16.733Z,3.40
2019-05-03T13:16:45.307Z,3.40
2019-05-03T13:19:15.191Z,3.20
2019-05-03T13:21:45.052Z,3.33
2019-05-03T13:24:22.962Z,3.17
2019-05-03T13:26:45.692Z,2.83
2019-05-03T13:29:15.319Z,3.13
2019-05-03T13:31:57.499Z,3.23
2019-05-03T13:34:15.924Z,3.33
2019-05-03T13:36:45.660Z,3.20
2019-05-03T13:39:14.895Z,3.10
2019-05-03T13:41:45.366Z,3.40
2019-05-03T13:44:15.584Z,3.40
2019-05-03T13:46:44.717Z,3.07
2019-05-03T13:49:13.414Z,2.80
2019-05-03T13:51:42.332Z,3.43
2019-05-03T13:54:10.893Z,3.13
2019-05-03T13:56:39.452Z,3.00
2019-05-03T13:59:18.543Z,3.27
2019-05-03T14:01:38.931Z,3.20
2019-05-03T14:04:07.634Z,3.20
2019-05-03T14:06:36.766Z,3.37
2019-05-03T14:09:06.851Z,3.10
2019-05-03T14:11:35.586Z,2.50
2019-05-03T14:14:04.675Z,2.67
2019-05-03T14:16:34.042Z,3.00
2019-05-03T14:19:08.809Z,2.60
2019-05-03T14:21:45.083Z,2.73
2019-05-03T14:24:15.635Z,3.53
2019-05-03T14:26:44.743Z,3.10
2019-05-03T14:29:14.930Z,2.60
2019-05-03T14:31:45.380Z,2.60
2019-05-03T14:34:16.959Z,2.50
2019-05-03T14:36:45.022Z,3.10
2019-05-03T14:39:15.083Z,2.50
2019-05-03T14:41:46.591Z,2.40
2019-05-03T14:44:15.575Z,2.40
2019-05-03T14:46:45.819Z,2.17
2019-05-03T14:49:14.872Z,2.50
2019-05-03T14:51:45.411Z,2.27
2019-05-03T14:54:14.519Z,3.00
2019-05-03T14:56:56.546Z,3.23
2019-05-03T14:59:47.409Z,3.10
2019-05-03T15:02:48.397Z,2.97
2019-05-03T15:05:14.976Z,3.13
2019-05-03T15:07:45.866Z,3.77
2019-05-03T15:10:15.041Z,3.23
2019-05-03T15:12:45.202Z,2.80
2019-05-03T15:15:14.868Z,3.10
2019-05-03T15:17:45.559Z,3.33
2019-05-03T15:20:14.817Z,3.30
2019-05-03T15:22:45.400Z,3.30
2019-05-03T15:25:13.845Z,3.57
2019-05-03T15:27:44.643Z,3.13
2019-05-03T15:30:13.066Z,3.53
2019-05-03T15:32:56.203Z,3.80
2019-05-03T15:35:11.999Z,3.47
2019-05-03T15:37:40.554Z,4.13
2019-05-03T15:40:09.755Z,4.00
2019-05-03T15:42:40.898Z,3.90
2019-05-03T15:45:35.154Z,3.80
2019-05-03T15:48:15.124Z,4.30
2019-05-03T15:50:44.677Z,4.20
2019-05-03T15:53:15.034Z,4.47
2019-05-03T15:55:43.598Z,4.20
2019-05-03T15:58:12.163Z,4.33
2019-05-03T16:00:40.820Z,4.27
2019-05-03T16:03:11.266Z,4.13
2019-05-03T16:05:39.838Z,3.80
2019-05-03T16:08:08.416Z,4.20
2019-05-03T16:10:37.324Z,5.93
2019-05-03T16:13:05.887Z,4.77
2019-05-03T16:15:35.185Z,4.27
2019-05-03T16:18:05.176Z,4.63
2019-05-03T16:20:34.185Z,4.10
2019-05-03T16:23:04.999Z,4.07
2019-05-03T16:25:35.508Z,4.27
2019-05-03T16:28:20.410Z,4.57
2019-05-03T16:30:55.568Z,3.83
2019-05-03T16:33:27.833Z,4.23
2019-05-03T16:35:54.903Z,4.40
2019-05-03T16:38:24.879Z,4.10
2019-05-03T16:40:54.484Z,5.20
2019-05-03T16:43:25.486Z,4.67
2019-05-03T16:45:55.157Z,4.93
2019-05-03T16:48:24.729Z,4.50
2019-05-03T16:50:53.506Z,4.63
2019-05-03T16:53:22.144Z,5.10
2019-05-03T16:55:50.711Z,4.40
2019-05-03T16:58:19.297Z,5.00
2019-05-03T17:00:47.885Z,4.30
2019-05-03T17:03:20.106Z,5.77
2019-05-03T17:06:09.234Z,6.07
2019-05-03T17:08:46.146Z,5.57
2019-05-03T17:11:16.862Z,4.60
2019-05-03T17:13:47.953Z,4.63
2019-05-03T17:16:16.064Z,5.17
2019-05-03T17:18:44.789Z,5.10
2019-05-03T17:21:14.612Z,5.00
2019-05-03T17:23:44.643Z,4.57
2019-05-03T17:26:14.932Z,4.67
2019-05-03T17:28:44.799Z,4.67
2019-05-03T17:31:13.499Z,4.67
2019-05-03T17:33:51.433Z,4.30
2019-05-03T17:36:12.478Z,4.10
2019-05-03T17:38:41.464Z,5.03
2019-05-03T17:41:19.274Z,4.37
2019-05-03T17:43:54.970Z,4.10
2019-05-03T17:46:25.410Z,4.67
2019-05-03T17:48:54.752Z,4.43
2019-05-03T17:51:41.182Z,4.73
2019-05-03T17:54:28.814Z,4.40
2019-05-03T17:57:05.902Z,5.00
2019-05-03T17:59:41.837Z,5.30
2019-05-03T18:02:32.599Z,4.97
2019-05-03T18:05:20.297Z,5.03
2019-05-03T18:08:20.047Z,5.63
2019-05-03T18:10:55.089Z,5.57
2019-05-03T18:13:24.775Z,6.00
2019-05-03T18:15:54.360Z,9.47
2019-05-03T18:18:24.731Z,11.47
2019-05-03T18:20:55.396Z,10.57
2019-05-03T18:23:24.643Z,9.30
2019-05-03T18:25:54.849Z,12.33
2019-05-03T18:28:25.020Z,13.10
2019-05-03T18:30:54.690Z,13.27
2019-05-03T18:33:24.734Z,11.43
2019-05-03T18:35:54.997Z,10.53
2019-05-03T18:38:25.255Z,8.17
2019-05-03T18:40:55.272Z,8.37
2019-05-03T18:43:31.946Z,7.73
2019-05-03T18:46:14.899Z,8.13
2019-05-03T18:48:44.574Z,8.27
2019-05-03T18:51:14.757Z,8.20
2019-05-03T18:53:45.274Z,7.53
2019-05-03T18:56:14.726Z,7.50
2019-05-03T18:58:44.857Z,7.13
2019-05-03T19:01:14.894Z,7.43
2019-05-03T19:03:45.579Z,7.93
2019-05-03T19:06:14.158Z,7.33
2019-05-03T19:09:01.329Z,8.47
2019-05-03T19:11:36.051Z,8.57
2019-05-03T19:14:06.715Z,7.37
2019-05-03T19:16:54.512Z,7.70
2019-05-03T19:19:25.949Z,8.07
2019-05-03T19:21:56.039Z,8.30
2019-05-03T19:24:25.381Z,8.17
2019-05-03T19:26:54.831Z,6.63
2019-05-03T19:29:25.008Z,7.13
2019-05-03T19:31:55.255Z,8.57
2019-05-03T19:34:24.309Z,7.80
2019-05-03T19:36:54.773Z,7.97
2019-05-03T19:39:25.259Z,7.90
2019-05-03T19:41:55.319Z,9.43
2019-05-03T19:44:24.092Z,8.57
2019-05-03T19:46:53.001Z,9.03
2019-05-03T19:49:21.586Z,7.70
2019-05-03T19:51:50.239Z,8.10
2019-05-03T19:54:18.823Z,7.30
2019-05-03T19:56:47.396Z,7.57
2019-05-03T19:59:35.066Z,7.77
2019-05-03T20:02:11.262Z,8.23
2019-05-03T20:05:14.957Z,8.20
2019-05-03T20:08:21.084Z,8.20
2019-05-03T20:10:50.242Z,7.40
2019-05-03T20:13:18.842Z,8.53
2019-05-03T20:15:47.508Z,8.73
2019-05-03T20:18:19.351Z,8.80
2019-05-03T20:20:47.946Z,8.67
2019-05-03T20:23:16.547Z,8.20
2019-05-03T20:25:45.118Z,8.43
2019-05-03T20:28:15.377Z,8.23
2019-05-03T20:30:45.241Z,8.90
2019-05-03T20:33:13.951Z,9.03
2019-05-03T20:35:42.544Z,8.30
2019-05-03T20:38:11.113Z,8.23
2019-05-03T20:40:39.708Z,7.80
2019-05-03T20:43:30.315Z,7.73
2019-05-03T20:46:05.030Z,8.23
2019-05-03T20:48:34.380Z,7.73
2019-05-03T20:51:03.098Z,7.93
2019-05-03T20:53:32.021Z,9.00
2019-05-03T20:56:00.593Z,9.23
2019-05-03T20:58:29.198Z,8.23
2019-05-03T21:00:57.759Z,8.83
2019-05-03T21:03:26.346Z,8.40
2019-05-03T21:05:55.358Z,9.30
2019-05-03T21:08:25.477Z,8.57
2019-05-03T21:10:55.204Z,8.67
2019-05-03T21:13:25.273Z,7.90
2019-05-03T21:16:11.983Z,8.17
2019-05-03T21:18:59.322Z,8.53
2019-05-03T21:21:36.135Z,8.20
2019-05-03T21:24:19.242Z,9.13
2019-05-03T21:26:48.114Z,9.13
2019-05-03T21:29:16.710Z,9.90
2019-05-03T21:31:45.310Z,9.00
2019-05-03T21:34:14.786Z,8.83
2019-05-03T21:36:45.213Z,9.20
2019-05-03T21:39:14.654Z,9.13
2019-05-03T21:41:45.069Z,8.90
2019-05-03T21:44:30.390Z,10.07
2019-05-03T21:47:04.712Z,10.33
2019-05-03T21:49:40.347Z,9.53
2019-05-03T21:52:08.914Z,10.83
2019-05-03T21:54:37.479Z,11.10
2019-05-03T21:57:06.134Z,10.60
2019-05-03T21:59:35.454Z,10.30
